Time;durP1;ratioP1;P1;durP2;ratioP2;P2;SDS_P1;SDS_P2;PMS_P1;PMS_P2;Temp;Humidity;BMP_temperature;BMP_pressure;BME280_temperature;BME280_humidity;BME280_pressure;Samples;Min_cycle;Max_cycle;Signal;HPM_P1;HPM_P2
2022/09/27 00:01:01;;;;;;;7.60;0.63;;;9.60;99.90;;;;;;5060295;28;20041;-65
2022/09/27 00:03:28;;;;;;;4.38;0.68;;;9.50;99.90;;;;;;5058380;28;20067;-65
2022/09/27 00:06:24;;;;;;;8.18;0.82;;;9.40;99.90;;;;;;5062129;28;20036;-65
2022/09/27 00:08:50;;;;;;;5.15;0.65;;;9.40;99.90;;;;;;5024748;28;20059;-65
2022/09/27 00:11:40;;;;;;;9.15;0.60;;;9.40;99.90;;;;;;5058176;28;20029;-65
2022/09/27 00:14:07;;;;;;;5.07;0.70;;;9.30;99.90;;;;;;5054067;28;20468;-65
2022/09/27 00:16:35;;;;;;;4.00;0.40;;;9.20;99.90;;;;;;5052806;28;20031;-65
2022/09/27 00:19:03;;;;;;;8.00;0.80;;;9.20;99.90;;;;;;5052526;28;20060;-64
2022/09/27 00:21:30;;;;;;;5.38;0.60;;;9.10;99.90;;;;;;5063515;28;20366;-65
2022/09/27 00:23:58;;;;;;;5.25;0.50;;;9.00;99.90;;;;;;5048584;28;20036;-64
2022/09/27 00:26:24;;;;;;;7.28;0.55;;;9.00;99.90;;;;;;5056388;28;20104;-64
2022/09/27 00:28:50;;;;;;;6.72;0.63;;;8.90;99.90;;;;;;5049341;28;20460;-64
2022/09/27 00:31:19;;;;;;;7.40;0.38;;;8.90;99.90;;;;;;5052059;28;20096;-65
2022/09/27 00:33:47;;;;;;;8.30;0.63;;;8.80;99.90;;;;;;5055089;28;20041;-64
2022/09/27 00:36:13;;;;;;;4.53;0.35;;;8.80;99.90;;;;;;5054294;28;20044;-65
2022/09/27 00:38:40;;;;;;;8.52;0.60;;;8.80;99.90;;;;;;5049358;28;20028;-65
2022/09/27 00:41:05;;;;;;;4.28;0.57;;;8.80;99.90;;;;;;5060169;28;20191;-65
2022/09/27 00:43:50;;;;;;;7.90;0.43;;;8.80;99.90;;;;;;5055214;28;20145;-65
2022/09/27 00:46:36;;;;;;;3.83;0.28;;;8.70;99.90;;;;;;5052871;28;20059;-64
2022/09/27 00:49:28;;;;;;;7.15;0.55;;;8.70;99.90;;;;;;5047506;28;20044;-65
2022/09/27 00:52:04;;;;;;;4.53;0.52;;;8.70;99.90;;;;;;5014516;28;20049;-65
2022/09/27 00:54:33;;;;;;;3.67;0.43;;;8.70;99.90;;;;;;5050855;28;20053;-65
2022/09/27 00:56:59;;;;;;;6.65;0.30;;;8.70;99.90;;;;;;5055249;28;21373;-65
2022/09/27 00:59:32;;;;;;;5.82;0.52;;;8.70;99.90;;;;;;5049906;28;20203;-65
2022/09/27 01:01:58;;;;;;;7.60;0.40;;;8.80;99.90;;;;;;5057925;28;20479;-65
2022/09/27 01:04:28;;;;;;;4.03;0.32;;;8.80;99.90;;;;;;5053554;28;20139;-65
2022/09/27 01:06:54;;;;;;;4.75;0.55;;;8.70;99.90;;;;;;5059310;28;20097;-64
2022/09/27 01:09:21;;;;;;;4.00;0.30;;;8.80;99.90;;;;;;5052057;28;20040;-65
2022/09/27 01:12:01;;;;;;;3.53;0.40;;;8.80;99.90;;;;;;5055569;28;20499;-64
2022/09/27 01:15:05;;;;;;;9.63;0.47;;;8.90;99.90;;;;;;5048537;28;20036;-65
2022/09/27 01:17:43;;;;;;;4.05;0.40;;;8.90;99.90;;;;;;5052510;28;20099;-65
2022/09/27 01:20:39;;;;;;;7.82;0.63;;;9.00;99.90;;;;;;5051980;28;20127;-65
2022/09/27 01:23:08;;;;;;;4.93;0.30;;;9.00;99.90;;;;;;5052985;28;20123;-65
2022/09/27 01:25:55;;;;;;;7.00;0.60;;;9.10;99.90;;;;;;5050308;28;20040;-65
2022/09/27 01:29:02;;;;;;;4.28;0.50;;;9.20;99.90;;;;;;5049821;28;20128;-65
2022/09/27 01:31:48;;;;;;;4.70;0.30;;;9.20;99.90;;;;;;5050816;28;20076;-66
2022/09/27 01:34:42;;;;;;;3.83;0.32;;;9.20;99.90;;;;;;5049418;28;20114;-65
2022/09/27 01:37:08;;;;;;;5.88;0.40;;;9.30;99.90;;;;;;5048679;28;20071;-65
2022/09/27 01:39:58;;;;;;;4.25;0.52;;;9.30;99.90;;;;;;5053277;28;20108;-65
2022/09/27 01:42:26;;;;;;;9.15;0.40;;;9.30;99.90;;;;;;5051670;28;20112;-65
2022/09/27 01:45:21;;;;;;;6.40;0.50;;;9.30;99.90;;;;;;5052398;28;20037;-65
2022/09/27 01:47:55;;;;;;;6.97;0.20;;;9.20;99.90;;;;;;5050533;28;20128;-65
2022/09/27 01:50:30;;;;;;;4.78;0.32;;;9.20;99.90;;;;;;5054830;28;20406;-65
2022/09/27 01:53:06;;;;;;;2.60;0.43;;;9.20;99.90;;;;;;5056486;28;20066;-65
2022/09/27 01:55:36;;;;;;;3.95;0.30;;;9.00;99.90;;;;;;5052577;28;20060;-66
2022/09/27 01:58:16;;;;;;;6.47;0.32;;;9.00;99.90;;;;;;5058578;28;20035;-66
2022/09/27 02:00:45;;;;;;;4.82;0.40;;;9.00;99.90;;;;;;5049789;28;20112;-65
2022/09/27 02:03:17;;;;;;;4.20;0.40;;;8.90;99.90;;;;;;5059595;28;20099;-65
2022/09/27 02:06:00;;;;;;;4.40;1.30;;;8.90;99.90;;;;;;5053163;28;20052;-65
2022/09/27 02:08:42;;;;;;;5.85;0.40;;;8.90;99.90;;;;;;5058375;28;20095;-65
2022/09/27 02:11:10;;;;;;;6.53;0.50;;;8.80;99.90;;;;;;5055540;28;20037;-65
2022/09/27 02:14:07;;;;;;;5.35;0.60;;;8.80;99.90;;;;;;5054291;28;20116;-65
2022/09/27 02:16:52;;;;;;;8.25;0.50;;;8.80;99.90;;;;;;5054498;28;20477;-65
2022/09/27 02:19:41;;;;;;;4.97;0.40;;;8.80;99.90;;;;;;5050447;28;20488;-65
2022/09/27 02:22:30;;;;;;;1.38;0.30;;;8.80;99.90;;;;;;5050730;28;20044;-65
2022/09/27 02:25:03;;;;;;;4.60;0.40;;;8.90;99.90;;;;;;5043599;28;20502;-65
2022/09/27 02:27:37;;;;;;;3.13;0.25;;;9.00;99.90;;;;;;5054550;28;20071;-65
2022/09/27 02:30:11;;;;;;;4.97;0.40;;;9.00;99.90;;;;;;5049866;28;20123;-65
2022/09/27 02:32:38;;;;;;;3.40;0.40;;;9.00;99.90;;;;;;5060791;28;20068;-64
2022/09/27 02:35:18;;;;;;;5.65;0.40;;;9.00;99.90;;;;;;5058411;28;20036;-65
2022/09/27 02:37:45;;;;;;;4.55;0.30;;;9.00;99.90;;;;;;5054849;28;20073;-65
2022/09/27 02:40:11;;;;;;;3.55;0.30;;;9.10;99.90;;;;;;5052178;28;20037;-65
2022/09/27 02:42:37;;;;;;;4.38;0.40;;;9.10;99.90;;;;;;5055826;28;20587;-63
2022/09/27 02:45:05;;;;;;;6.93;1.00;;;9.00;99.90;;;;;;5057405;28;20033;-63
2022/09/27 02:47:51;;;;;;;4.53;0.30;;;9.10;99.90;;;;;;5051786;28;20033;-63
2022/09/27 02:50:43;;;;;;;3.03;0.30;;;9.10;99.90;;;;;;5053582;28;20033;-64
2022/09/27 02:53:27;;;;;;;4.70;0.30;;;9.10;99.90;;;;;;5057826;28;20043;-63
2022/09/27 02:56:09;;;;;;;1.50;0.10;;;9.00;99.90;;;;;;5053086;28;20050;-64
2022/09/27 02:58:57;;;;;;;4.30;0.60;;;9.00;99.90;;;;;;5058817;28;20041;-64
2022/09/27 03:01:46;;;;;;;4.50;0.55;;;9.00;99.90;;;;;;5056691;28;20075;-64
2022/09/27 03:04:12;;;;;;;3.97;0.20;;;9.00;99.90;;;;;;5053865;28;20048;-64
2022/09/27 03:06:41;;;;;;;3.13;0.30;;;8.90;99.90;;;;;;5057541;28;20032;-63
2022/09/27 03:09:21;;;;;;;3.90;0.30;;;8.90;99.90;;;;;;5062783;28;20052;-65
2022/09/27 03:11:47;;;;;;;2.50;0.50;;;8.90;99.90;;;;;;5069989;28;20028;-65
2022/09/27 03:14:13;;;;;;;7.68;0.45;;;8.90;99.90;;;;;;5058876;28;20368;-64
2022/09/27 03:16:38;;;;;;;7.85;0.38;;;8.90;99.90;;;;;;5057620;28;20068;-64
2022/09/27 03:19:04;;;;;;;3.38;0.20;;;8.90;99.90;;;;;;5061435;28;20037;-64
2022/09/27 03:21:30;;;;;;;2.88;0.28;;;8.90;99.90;;;;;;5057434;28;20138;-64
2022/09/27 03:23:55;;;;;;;3.42;0.28;;;8.90;99.90;;;;;;5055199;28;20306;-64
2022/09/27 03:26:21;;;;;;;5.90;0.30;;;8.90;99.90;;;;;;5058491;28;20527;-64
2022/09/27 03:28:47;;;;;;;6.28;0.35;;;8.90;99.90;;;;;;5060469;28;20143;-64
2022/09/27 03:31:13;;;;;;;4.07;0.20;;;8.90;99.90;;;;;;5056099;28;20356;-64
2022/09/27 03:33:39;;;;;;;6.65;0.47;;;8.90;99.90;;;;;;5064376;28;20345;-64
2022/09/27 03:36:06;;;;;;;4.22;0.55;;;8.90;99.90;;;;;;5058194;28;20066;-65
2022/09/27 03:38:32;;;;;;;3.58;0.50;;;8.90;99.90;;;;;;5064648;28;20060;-64
2022/09/27 03:40:57;;;;;;;5.75;0.28;;;8.90;99.90;;;;;;5059512;28;20124;-64
2022/09/27 03:43:24;;;;;;;3.58;0.30;;;8.80;99.90;;;;;;5056389;28;20048;-64
2022/09/27 03:45:50;;;;;;;2.13;0.30;;;8.80;99.90;;;;;;5052299;28;20033;-65
2022/09/27 03:48:15;;;;;;;5.15;0.40;;;8.80;99.90;;;;;;5060372;28;20124;-65
2022/09/27 03:50:41;;;;;;;2.85;0.50;;;8.80;99.90;;;;;;5054366;28;20080;-64
2022/09/27 03:53:07;;;;;;;3.08;0.50;;;8.80;99.90;;;;;;5055421;28;20090;-65
2022/09/27 03:55:34;;;;;;;7.43;0.30;;;8.80;99.90;;;;;;5057483;28;20052;-64
2022/09/27 03:58:00;;;;;;;2.80;0.20;;;8.70;99.90;;;;;;5053641;28;20044;-64
2022/09/27 04:00:25;;;;;;;3.08;0.68;;;8.70;99.90;;;;;;5052366;28;20048;-65
2022/09/27 04:02:51;;;;;;;3.08;0.20;;;8.70;99.90;;;;;;5051093;28;20436;-64
2022/09/27 04:05:18;;;;;;;5.00;0.28;;;8.60;99.90;;;;;;5054869;28;20178;-65
2022/09/27 04:07:49;;;;;;;3.63;0.52;;;8.60;99.90;;;;;;5056265;28;20037;-65
2022/09/27 04:10:15;;;;;;;3.25;0.20;;;8.60;99.90;;;;;;5054125;28;20033;-64
2022/09/27 04:12:42;;;;;;;5.30;0.30;;;8.60;99.90;;;;;;5057663;28;20395;-65
2022/09/27 04:15:09;;;;;;;4.10;0.30;;;8.60;99.90;;;;;;5056282;28;20122;-65
2022/09/27 04:17:35;;;;;;;3.40;0.30;;;8.60;99.90;;;;;;5057350;28;20041;-65
2022/09/27 04:20:02;;;;;;;3.08;0.30;;;8.60;99.90;;;;;;5053477;28;20041;-64
2022/09/27 04:22:28;;;;;;;2.55;0.20;;;8.60;99.90;;;;;;5050214;28;20036;-64
2022/09/27 04:24:54;;;;;;;2.63;0.20;;;8.60;99.90;;;;;;5053515;28;20045;-65
2022/09/27 04:27:21;;;;;;;4.03;0.20;;;8.60;99.90;;;;;;5057556;28;20059;-64
2022/09/27 04:29:47;;;;;;;4.72;0.50;;;8.60;99.90;;;;;;5050907;28;20127;-64
2022/09/27 04:32:13;;;;;;;4.30;0.20;;;8.60;99.90;;;;;;5053346;28;20090;-64
2022/09/27 04:37:24;;;;;;;5.22;0.20;;;8.60;99.90;;;;;;5058677;28;20051;-64
2022/09/27 04:39:50;;;;;;;3.00;0.60;;;8.60;99.90;;;;;;5059712;28;20037;-64
2022/09/27 04:42:16;;;;;;;3.42;0.13;;;8.60;99.90;;;;;;5054260;28;20044;-64
2022/09/27 04:44:42;;;;;;;1.33;0.32;;;8.60;99.90;;;;;;5053424;28;20059;-64
2022/09/27 04:47:08;;;;;;;5.63;0.45;;;8.60;99.90;;;;;;5048776;28;20049;-64
2022/09/27 04:49:34;;;;;;;1.85;0.20;;;8.60;99.90;;;;;;5051337;28;20036;-65
2022/09/27 04:52:00;;;;;;;3.22;0.30;;;8.60;99.90;;;;;;5055213;28;20041;-64
2022/09/27 04:54:25;;;;;;;5.45;0.20;;;8.50;99.90;;;;;;5057124;28;20137;-64
2022/09/27 04:56:51;;;;;;;3.05;0.22;;;8.60;99.90;;;;;;5050506;28;20449;-64
2022/09/27 04:59:17;;;;;;;6.07;0.20;;;8.50;99.90;;;;;;5051662;28;20033;-64
2022/09/27 05:01:42;;;;;;;4.78;0.22;;;8.40;99.90;;;;;;5056983;28;20040;-63
2022/09/27 05:04:08;;;;;;;4.97;0.47;;;8.40;99.90;;;;;;5052921;28;20076;-63
2022/09/27 05:06:34;;;;;;;3.35;0.20;;;8.40;99.90;;;;;;5055590;28;20037;-64
2022/09/27 05:08:59;;;;;;;1.30;0.20;;;8.30;99.90;;;;;;5054888;28;20043;-64
2022/09/27 05:11:25;;;;;;;4.70;0.30;;;8.20;99.90;;;;;;5054704;28;21035;-64
2022/09/27 05:13:51;;;;;;;5.88;0.60;;;8.20;99.90;;;;;;5062195;28;20042;-64
2022/09/27 05:16:17;;;;;;;4.22;0.30;;;8.10;99.90;;;;;;5058794;28;20476;-64
2022/09/27 05:18:42;;;;;;;4.22;0.38;;;8.00;99.90;;;;;;5054026;28;20465;-64
2022/09/27 05:21:08;;;;;;;2.47;0.30;;;8.00;99.90;;;;;;5051169;28;20029;-64
2022/09/27 05:23:34;;;;;;;2.42;0.40;;;8.00;99.90;;;;;;5050073;28;20102;-64
2022/09/27 05:26:04;;;;;;;5.95;0.40;;;7.90;99.90;;;;;;5051197;28;20487;-64
2022/09/27 05:28:31;;;;;;;3.45;0.65;;;7.90;99.90;;;;;;5053905;28;20404;-64
2022/09/27 05:30:57;;;;;;;5.50;0.40;;;7.80;99.90;;;;;;5057382;28;20041;-64
2022/09/27 05:33:22;;;;;;;3.75;0.45;;;7.90;99.90;;;;;;5051846;28;20037;-64
2022/09/27 05:35:56;;;;;;;2.75;0.52;;;7.80;99.90;;;;;;5056821;28;20413;-64
2022/09/27 05:38:22;;;;;;;3.55;0.52;;;7.70;99.90;;;;;;5050971;28;20392;-64
2022/09/27 05:40:49;;;;;;;3.05;0.50;;;7.70;99.90;;;;;;5050756;28;20040;-63
2022/09/27 05:43:16;;;;;;;5.35;0.40;;;7.70;99.90;;;;;;5057530;28;20037;-63
2022/09/27 05:45:43;;;;;;;5.53;0.52;;;7.60;99.90;;;;;;5050869;28;20549;-63
2022/09/27 05:48:11;;;;;;;4.03;0.77;;;7.60;99.90;;;;;;5051057;28;20041;-64
2022/09/27 05:50:37;;;;;;;4.82;0.50;;;7.60;99.90;;;;;;5055295;28;20041;-64
2022/09/27 05:53:03;;;;;;;4.50;0.50;;;7.50;99.90;;;;;;5051949;28;20507;-63
2022/09/27 05:55:29;;;;;;;4.55;1.08;;;7.60;99.90;;;;;;5049878;28;20053;-64
2022/09/27 05:58:00;;;;;;;3.25;0.57;;;7.50;99.90;;;;;;5046539;28;20056;-64
2022/09/27 06:00:27;;;;;;;10.30;0.98;;;7.50;99.90;;;;;;5048563;28;20353;-64
2022/09/27 06:02:58;;;;;;;3.42;0.60;;;7.60;99.90;;;;;;5054296;28;20522;-64
2022/09/27 06:05:24;;;;;;;6.30;0.50;;;7.60;99.90;;;;;;5052827;28;20112;-65
2022/09/27 06:07:51;;;;;;;7.80;0.93;;;7.60;99.90;;;;;;5055274;28;20142;-65
2022/09/27 06:10:18;;;;;;;4.50;0.57;;;7.60;99.90;;;;;;5056613;28;20032;-64
2022/09/27 06:12:45;;;;;;;4.30;0.60;;;7.60;99.90;;;;;;5062634;28;20025;-64
2022/09/27 06:15:11;;;;;;;4.80;0.60;;;7.70;99.90;;;;;;5060026;28;20036;-64
2022/09/27 06:17:37;;;;;;;5.35;0.63;;;7.70;99.90;;;;;;5052275;28;20107;-64
2022/09/27 06:20:03;;;;;;;5.45;0.70;;;7.80;99.90;;;;;;5058609;28;20048;-64
2022/09/27 06:22:29;;;;;;;5.25;0.52;;;7.80;99.90;;;;;;5055529;28;20072;-64
2022/09/27 06:24:55;;;;;;;4.75;0.50;;;7.90;99.90;;;;;;5049227;28;20075;-65
2022/09/27 06:27:20;;;;;;;8.02;0.93;;;8.00;99.90;;;;;;5062322;28;20044;-64
2022/09/27 06:29:46;;;;;;;7.55;0.63;;;8.10;99.90;;;;;;5060451;28;20128;-65
2022/09/27 06:32:12;;;;;;;7.20;0.70;;;8.20;99.90;;;;;;5058409;28;20060;-65
2022/09/27 06:34:38;;;;;;;3.22;0.40;;;8.30;99.90;;;;;;5056893;28;20100;-65
2022/09/27 06:37:04;;;;;;;4.25;0.47;;;8.40;99.90;;;;;;5056159;28;20032;-65
2022/09/27 06:39:32;;;;;;;7.20;0.50;;;8.50;99.90;;;;;;5054420;28;20139;-65
2022/09/27 06:41:58;;;;;;;3.35;0.47;;;8.50;99.90;;;;;;5055431;28;20075;-65
2022/09/27 06:44:24;;;;;;;4.88;0.47;;;8.60;99.90;;;;;;5054227;28;20040;-65
2022/09/27 06:46:51;;;;;;;5.85;0.95;;;8.60;99.90;;;;;;5055886;28;20427;-65
2022/09/27 06:49:18;;;;;;;9.63;0.57;;;8.70;99.90;;;;;;5056506;28;20123;-66
2022/09/27 06:51:44;;;;;;;8.65;0.50;;;8.70;99.90;;;;;;5050246;28;20041;-65
2022/09/27 06:54:10;;;;;;;6.13;0.82;;;8.70;99.90;;;;;;5056143;28;20405;-65
2022/09/27 06:56:36;;;;;;;8.73;0.60;;;8.70;99.90;;;;;;5055406;28;20111;-65
2022/09/27 07:01:46;;;;;;;5.40;0.82;;;8.80;99.90;;;;;;5053053;28;20068;-65
2022/09/27 07:04:12;;;;;;;3.92;0.73;;;8.90;99.90;;;;;;5054614;28;20064;-65
2022/09/27 07:06:38;;;;;;;5.10;0.70;;;9.00;99.90;;;;;;5051998;28;20040;-65
2022/09/27 07:09:05;;;;;;;4.85;0.60;;;9.10;99.90;;;;;;5054459;28;20036;-66
2022/09/27 07:11:35;;;;;;;5.15;0.50;;;9.20;99.90;;;;;;5050018;28;20468;-65
2022/09/27 07:14:03;;;;;;;2.28;0.40;;;9.30;99.90;;;;;;5053910;28;20040;-65
2022/09/27 07:16:36;;;;;;;5.30;0.70;;;9.30;99.90;;;;;;5050767;28;20056;-65
2022/09/27 07:19:03;;;;;;;6.88;1.48;;;9.40;99.90;;;;;;5057676;28;20050;-65
2022/09/27 07:21:28;;;;;;;5.43;0.70;;;9.50;99.90;;;;;;5057109;28;20033;-65
2022/09/27 07:23:54;;;;;;;5.43;0.60;;;9.60;99.90;;;;;;5062555;28;20044;-65
2022/09/27 07:26:20;;;;;;;3.38;0.25;;;9.70;99.90;;;;;;5059948;28;20097;-65
2022/09/27 07:28:45;;;;;;;3.90;0.47;;;9.80;99.90;;;;;;5060622;28;20045;-65
2022/09/27 07:31:12;;;;;;;3.80;1.50;;;9.90;99.90;;;;;;5055181;28;20044;-65
2022/09/27 07:33:38;;;;;;;2.17;0.55;;;9.90;99.90;;;;;;5057664;28;20150;-65
2022/09/27 07:36:09;;;;;;;5.28;0.47;;;10.10;99.90;;;;;;5055814;28;20049;-65
2022/09/27 07:38:35;;;;;;;3.38;0.40;;;10.20;99.90;;;;;;5052438;28;20037;-65
2022/09/27 07:41:13;;;;;;;4.97;0.40;;;10.50;99.90;;;;;;5054531;28;20191;-65
2022/09/27 07:43:43;;;;;;;3.85;0.55;;;10.70;99.90;;;;;;5058409;28;20599;-66
2022/09/27 07:46:09;;;;;;;6.03;0.50;;;11.00;99.90;;;;;;5054044;28;20053;-66
2022/09/27 07:48:35;;;;;;;20.23;2.17;;;11.60;99.90;;;;;;5046942;28;20533;-66
2022/09/27 07:51:06;;;;;;;91.50;6.35;;;12.20;99.90;;;;;;5056380;28;20067;-65
2022/09/27 07:53:39;;;;;;;98.95;10.13;;;13.00;99.90;;;;;;5058053;28;20033;-66
2022/09/27 07:56:09;;;;;;;3.83;0.30;;;13.60;99.90;;;;;;5051959;28;20053;-66
2022/09/27 07:58:37;;;;;;;4.25;0.40;;;14.30;99.90;;;;;;5051580;28;20089;-65
2022/09/27 08:01:08;;;;;;;4.10;0.50;;;14.80;99.90;;;;;;5049759;28;20060;-65
2022/09/27 08:03:39;;;;;;;2.15;0.20;;;15.50;99.90;;;;;;5047741;28;20544;-65
2022/09/27 08:06:07;;;;;;;5.25;0.30;;;16.40;99.90;;;;;;5055795;28;20028;-65
2022/09/27 08:08:33;;;;;;;4.80;0.20;;;16.90;99.90;;;;;;5053983;28;20067;-67
2022/09/27 08:10:59;;;;;;;5.32;0.50;;;16.90;99.90;;;;;;5056852;28;20072;-65
2022/09/27 08:13:24;;;;;;;3.17;0.40;;;16.50;99.90;;;;;;5055297;28;20055;-65
2022/09/27 08:15:51;;;;;;;3.65;0.40;;;15.90;99.90;;;;;;5056891;28;20086;-65
2022/09/27 08:18:17;;;;;;;4.22;0.30;;;15.20;99.90;;;;;;5056317;28;20493;-66
2022/09/27 08:20:43;;;;;;;2.85;0.22;;;14.80;99.90;;;;;;5055302;28;20068;-67
2022/09/27 08:23:09;;;;;;;5.20;0.40;;;14.70;99.90;;;;;;5059607;28;20025;-67
2022/09/27 08:25:35;;;;;;;2.92;0.20;;;14.50;99.90;;;;;;5051507;28;20085;-65
2022/09/27 08:28:03;;;;;;;3.47;0.30;;;14.30;99.90;;;;;;5045043;28;20110;-66
2022/09/27 08:30:31;;;;;;;4.57;0.30;;;14.00;99.90;;;;;;5054681;28;20048;-66
2022/09/27 08:32:58;;;;;;;3.47;0.32;;;13.60;99.90;;;;;;5055128;28;20041;-66
2022/09/27 08:35:24;;;;;;;3.83;0.35;;;13.30;99.90;;;;;;5052398;28;20060;-65
2022/09/27 08:37:54;;;;;;;3.17;0.28;;;13.10;99.90;;;;;;5053057;28;20088;-65
2022/09/27 08:40:23;;;;;;;3.17;0.40;;;12.90;99.90;;;;;;5052137;28;20032;-65
2022/09/27 08:43:05;;;;;;;4.50;0.40;;;12.80;99.90;;;;;;5056784;28;20049;-66
2022/09/27 08:45:37;;;;;;;1.85;0.20;;;13.40;99.90;;;;;;5050429;28;20041;-66
2022/09/27 08:48:04;;;;;;;3.20;0.38;;;15.00;99.90;;;;;;5053542;28;20033;-65
2022/09/27 08:50:31;;;;;;;2.05;0.30;;;16.40;99.90;;;;;;5051196;28;20052;-65
2022/09/27 08:52:59;;;;;;;12.20;0.95;;;17.30;99.90;;;;;;5054527;28;20051;-65
2022/09/27 08:55:36;;;;;;;4.18;0.40;;;18.20;99.90;;;;;;5053583;28;20052;-66
2022/09/27 08:58:28;;;;;;;3.00;0.28;;;19.10;99.90;;;;;;5048996;28;20068;-65
2022/09/27 09:01:13;;;;;;;2.88;0.40;;;19.50;99.90;;;;;;5054100;28;20052;-65
2022/09/27 09:03:46;;;;;;;2.33;0.30;;;19.00;99.90;;;;;;5050897;28;20059;-65
2022/09/27 09:06:29;;;;;;;2.88;0.40;;;17.90;99.90;;;;;;5051890;28;20446;-66
2022/09/27 09:09:19;;;;;;;3.03;0.45;;;16.80;99.90;;;;;;5055638;28;20481;-67
2022/09/27 09:15:07;;;;;;;7.30;0.60;;;14.90;99.90;;;;;;5050346;28;20397;-67
2022/09/27 09:18:14;;;;;;;3.13;0.30;;;14.10;99.90;;;;;;5051057;28;20489;-66
2022/09/27 09:20:45;;;;;;;2.70;0.32;;;13.50;99.90;;;;;;5014774;28;20099;-66
2022/09/27 09:23:29;;;;;;;2.78;0.30;;;13.20;99.90;;;;;;5056356;28;20028;-65
2022/09/27 09:26:12;;;;;;;1.75;0.20;;;13.00;99.90;;;;;;5052496;28;20079;-65
2022/09/27 09:28:57;;;;;;;2.78;0.30;;;12.80;99.90;;;;;;5059288;28;20059;-65
2022/09/27 09:31:41;;;;;;;3.60;0.25;;;12.70;99.90;;;;;;5020550;28;20046;-65
2022/09/27 09:34:37;;;;;;;2.75;0.45;;;12.60;99.90;;;;;;5021599;28;20072;-65
2022/09/27 09:37:20;;;;;;;3.15;0.55;;;12.60;99.90;;;;;;5041748;28;20372;-65
2022/09/27 09:39:57;;;;;;;3.05;0.20;;;12.90;99.90;;;;;;5053928;28;20037;-64
2022/09/27 09:42:37;;;;;;;2.70;0.60;;;13.40;99.90;;;;;;5055343;28;20045;-64
2022/09/27 09:45:15;;;;;;;4.82;0.50;;;13.70;99.90;;;;;;5048302;28;20048;-64
2022/09/27 09:47:44;;;;;;;1.38;0.20;;;13.70;99.90;;;;;;5053749;28;20097;-64
2022/09/27 09:50:27;;;;;;;2.17;0.20;;;13.70;99.90;;;;;;5055433;28;20071;-64
2022/09/27 09:53:40;;;;;;;1.33;0.10;;;13.70;99.90;;;;;;5053400;28;20154;-64
2022/09/27 09:56:19;;;;;;;2.53;0.25;;;13.60;99.90;;;;;;4966665;28;20494;-64
2022/09/27 09:58:55;;;;;;;1.20;0.20;;;13.50;99.90;;;;;;5046964;28;20059;-64
2022/09/27 10:01:26;;;;;;;3.63;0.20;;;13.50;99.90;;;;;;5052067;28;20101;-64
2022/09/27 10:03:55;;;;;;;1.90;0.10;;;13.80;99.90;;;;;;5053434;28;20068;-64
2022/09/27 10:06:22;;;;;;;1.50;0.20;;;14.10;99.90;;;;;;5054336;28;20044;-65
2022/09/27 10:08:48;;;;;;;1.98;0.20;;;14.20;99.90;;;;;;5053340;28;20048;-65
2022/09/27 10:11:24;;;;;;;2.05;0.50;;;14.20;99.90;;;;;;5053395;28;20073;-65
2022/09/27 10:13:51;;;;;;;2.22;0.15;;;14.20;99.90;;;;;;5057429;28;20396;-65
2022/09/27 10:16:19;;;;;;;2.25;0.20;;;14.30;99.90;;;;;;5054029;28;20534;-66
2022/09/27 10:18:48;;;;;;;2.35;0.30;;;14.30;99.90;;;;;;5053658;28;20052;-66
2022/09/27 10:21:29;;;;;;;1.73;0.10;;;14.30;99.90;;;;;;5054368;28;20040;-66
2022/09/27 10:24:27;;;;;;;2.80;0.30;;;14.20;99.90;;;;;;5048074;28;20091;-66
2022/09/27 10:26:58;;;;;;;2.20;0.20;;;14.00;99.90;;;;;;5020898;28;20052;-65
2022/09/27 10:29:32;;;;;;;0.90;0.10;;;14.00;99.90;;;;;;5061040;28;20044;-66
2022/09/27 10:32:02;;;;;;;1.55;0.20;;;14.10;99.90;;;;;;5057658;28;20036;-65
2022/09/27 10:34:34;;;;;;;3.30;0.17;;;14.70;99.90;;;;;;5056586;28;20045;-65
2022/09/27 10:37:09;;;;;;;1.90;0.10;;;15.70;99.90;;;;;;5055290;28;20036;-65
2022/09/27 10:39:35;;;;;;;1.23;0.10;;;16.10;99.90;;;;;;5053349;28;20064;-65
2022/09/27 10:42:01;;;;;;;2.55;0.10;;;16.10;99.90;;;;;;5054964;28;20045;-66
2022/09/27 10:44:31;;;;;;;0.88;0.10;;;16.00;99.90;;;;;;5060716;28;20059;-65
2022/09/27 10:47:09;;;;;;;1.55;0.15;;;15.80;99.90;;;;;;5063658;28;20106;-65
2022/09/27 10:49:38;;;;;;;2.20;0.32;;;15.70;99.90;;;;;;5056001;28;20386;-65
2022/09/27 10:52:16;;;;;;;2.95;0.22;;;15.80;99.90;;;;;;5046403;28;20037;-65
2022/09/27 10:55:11;;;;;;;0.82;0.10;;;15.70;99.90;;;;;;5059714;28;20060;-65
2022/09/27 10:57:37;;;;;;;;;;;15.60;99.90;;;;;;5053734;28;20132;-66
2022/09/27 11:00:28;;;;;;;2.10;0.20;;;15.80;99.90;;;;;;5050762;28;20316;-66
2022/09/27 11:02:58;;;;;;;1.25;0.10;;;16.50;99.90;;;;;;5048196;28;20043;-67
2022/09/27 11:05:26;;;;;;;1.23;0.10;;;17.10;99.90;;;;;;5055422;28;20141;-66
2022/09/27 11:07:57;;;;;;;0.90;0.20;;;17.50;99.90;;;;;;5048153;28;20338;-66
2022/09/27 11:10:27;;;;;;;1.75;0.10;;;17.00;99.90;;;;;;5052752;28;20036;-66
2022/09/27 11:13:13;;;;;;;1.58;0.10;;;16.30;99.90;;;;;;5052038;28;20068;-66
2022/09/27 11:16:18;;;;;;;1.42;0.20;;;15.50;99.90;;;;;;5048566;28;20045;-66
2022/09/27 11:19:02;;;;;;;2.70;0.25;;;14.70;99.90;;;;;;5054308;28;20037;-66
2022/09/27 11:21:53;;;;;;;1.60;0.20;;;13.90;99.90;;;;;;5054189;28;20029;-66
2022/09/27 11:24:36;;;;;;;0.17;0.00;;;13.40;99.90;;;;;;5052241;28;20039;-66
2022/09/27 11:27:43;;;;;;;2.05;0.20;;;13.20;99.90;;;;;;5058272;28;20051;-66
2022/09/27 11:30:19;;;;;;;0.63;0.10;;;13.30;99.90;;;;;;5048612;28;20107;-67
2022/09/27 11:33:17;;;;;;;1.15;0.00;;;13.80;99.90;;;;;;5051022;28;20484;-66
2022/09/27 11:36:04;;;;;;;0.65;0.00;;;14.60;99.90;;;;;;5050334;28;20046;-66
2022/09/27 11:38:41;;;;;;;1.30;0.05;;;15.60;99.90;;;;;;5051186;28;20033;-67
2022/09/27 11:41:54;;;;;;;2.55;0.10;;;16.10;99.90;;;;;;5046365;28;20099;-66
2022/09/27 11:44:46;;;;;;;0.25;0.00;;;16.40;99.90;;;;;;5011022;28;20044;-66
2022/09/27 11:47:26;;;;;;;0.55;0.00;;;16.20;99.90;;;;;;5055424;28;20037;-66
2022/09/27 11:50:11;;;;;;;0.28;0.00;;;15.80;99.90;;;;;;5052100;28;20102;-66
2022/09/27 11:53:10;;;;;;;1.35;0.03;;;15.40;99.90;;;;;;5052491;28;20147;-66
2022/09/27 11:56:05;;;;;;;0.52;0.00;;;15.00;99.90;;;;;;5047612;28;20334;-66
2022/09/27 11:58:43;;;;;;;0.98;0.08;;;14.70;99.90;;;;;;5050104;28;20123;-66
2022/09/27 12:01:21;;;;;;;0.57;0.17;;;15.20;99.90;;;;;;5047508;28;20049;-67
2022/09/27 12:04:17;;;;;;;0.52;0.00;;;15.60;99.90;;;;;;5057136;28;20056;-65
2022/09/27 12:06:57;;;;;;;1.40;0.10;;;15.90;99.90;;;;;;5058910;28;20036;-65
2022/09/27 12:09:29;;;;;;;1.13;0.03;;;16.30;99.90;;;;;;5055271;28;20089;-65
2022/09/27 12:12:18;;;;;;;0.68;0.10;;;16.60;99.90;;;;;;5059396;28;20122;-65
2022/09/27 12:14:49;;;;;;;1.23;0.20;;;16.60;99.90;;;;;;5041130;28;20091;-64
2022/09/27 12:17:19;;;;;;;3.30;0.10;;;16.50;99.90;;;;;;5049422;28;20072;-64
2022/09/27 12:19:57;;;;;;;1.33;0.10;;;16.50;99.90;;;;;;5050061;28;20072;-64
2022/09/27 12:22:37;;;;;;;2.17;0.20;;;16.90;99.90;;;;;;5055154;28;20510;-65
2022/09/27 12:25:03;;;;;;;2.42;0.10;;;17.20;99.90;;;;;;5046959;28;20051;-65
2022/09/27 12:28:07;;;;;;;1.55;0.20;;;17.30;99.90;;;;;;5047358;28;20148;-65
2022/09/27 12:30:38;;;;;;;1.55;0.20;;;17.10;99.90;;;;;;5030207;28;20458;-65
2022/09/27 12:33:31;;;;;;;1.23;0.10;;;16.80;99.90;;;;;;5052211;28;20045;-65
2022/09/27 12:36:01;;;;;;;0.88;0.20;;;16.40;99.90;;;;;;5046562;28;20029;-65
2022/09/27 12:38:35;;;;;;;2.33;0.20;;;16.00;99.90;;;;;;5050273;28;20646;-65
2022/09/27 12:41:04;;;;;;;4.57;0.20;;;15.60;99.90;;;;;;5050598;28;20033;-65
2022/09/27 12:43:34;;;;;;;1.88;0.20;;;15.30;99.90;;;;;;5050553;28;20029;-65
2022/09/27 12:46:37;;;;;;;5.78;0.50;;;15.00;99.90;;;;;;5046378;28;20407;-65
2022/09/27 12:49:30;;;;;;;1.48;0.20;;;14.70;99.90;;;;;;5049050;28;20103;-65
2022/09/27 12:52:00;;;;;;;1.42;0.20;;;14.50;99.90;;;;;;5047988;28;20041;-65
2022/09/27 12:54:34;;;;;;;3.65;0.20;;;14.40;99.90;;;;;;5054557;28;20539;-65
2022/09/27 12:57:21;;;;;;;1.63;0.30;;;14.60;99.90;;;;;;5050767;28;20454;-65
2022/09/27 13:00:05;;;;;;;3.03;0.40;;;15.10;99.90;;;;;;5051458;28;20041;-65
2022/09/27 13:02:52;;;;;;;3.00;0.40;;;15.50;99.90;;;;;;5047959;28;20037;-65
2022/09/27 13:06:03;;;;;;;1.98;0.25;;;15.50;99.90;;;;;;5055713;28;20072;-65
2022/09/27 13:08:47;;;;;;;1.30;0.20;;;15.40;99.90;;;;;;5047623;28;20072;-65
2022/09/27 13:11:35;;;;;;;2.03;0.28;;;15.10;99.90;;;;;;5048080;28;20095;-65
2022/09/27 13:14:03;;;;;;;3.35;0.20;;;14.90;99.90;;;;;;5053472;28;20045;-65
2022/09/27 13:16:29;;;;;;;2.80;0.50;;;14.70;99.90;;;;;;5050330;28;20131;-65
2022/09/27 13:19:00;;;;;;;2.85;0.17;;;14.50;99.90;;;;;;5055129;28;20449;-65
2022/09/27 13:21:50;;;;;;;4.40;0.35;;;14.40;99.90;;;;;;5061008;28;20361;-65
2022/09/27 13:24:29;;;;;;;1.70;0.20;;;14.40;99.90;;;;;;5059739;28;20822;-65
2022/09/27 13:26:57;;;;;;;2.33;0.20;;;14.30;99.90;;;;;;5053022;28;20107;-65
2022/09/27 13:29:26;;;;;;;0.90;0.10;;;14.20;99.90;;;;;;5054655;28;20052;-65
2022/09/27 13:31:57;;;;;;;2.33;0.22;;;14.30;99.90;;;;;;5051894;28;20469;-65
2022/09/27 13:34:53;;;;;;;2.78;0.30;;;14.30;99.90;;;;;;5051959;28;20045;-64